createdAt,value
2022-09-07T00:01:08.640Z,100.00
2022-09-07T00:06:12.934Z,100.00
2022-09-07T00:11:18.045Z,100.00
2022-09-07T00:16:23.286Z,100.00
2022-09-07T00:21:25.829Z,100.00
2022-09-07T00:26:29.831Z,100.00
2022-09-07T00:31:32.316Z,100.00
2022-09-07T00:36:34.494Z,100.00
2022-09-07T00:41:36.629Z,100.00
2022-09-07T00:46:38.805Z,100.00
2022-09-07T00:51:46.067Z,100.00
2022-09-07T00:56:50.031Z,100.00
2022-09-07T01:01:53.122Z,100.00
2022-09-07T01:06:56.206Z,100.00
2022-09-07T01:12:00.775Z,100.00
2022-09-07T01:17:34.884Z,100.00
2022-09-07T01:22:54.406Z,100.00
2022-09-07T01:28:08.498Z,100.00
2022-09-07T01:33:27.619Z,100.00
2022-09-07T01:38:42.899Z,100.00
2022-09-07T01:43:50.927Z,100.00
2022-09-07T01:48:56.834Z,100.00
2022-09-07T01:54:07.799Z,100.00
2022-09-07T01:59:25.019Z,100.00
2022-09-07T02:04:35.827Z,100.00
2022-09-07T02:09:44.067Z,100.00
2022-09-07T02:14:57.259Z,100.00
2022-09-07T02:20:08.855Z,100.00
2022-09-07T02:25:16.308Z,100.00
2022-09-07T02:30:18.527Z,100.00
2022-09-07T02:35:20.926Z,100.00
2022-09-07T02:40:23.083Z,100.00
2022-09-07T02:45:25.795Z,100.00
2022-09-07T02:50:46.801Z,100.00
2022-09-07T02:56:07.634Z,100.00
2022-09-07T03:01:26.361Z,100.00
2022-09-07T03:06:47.853Z,100.00
2022-09-07T03:11:50.691Z,100.00
2022-09-07T03:16:56.383Z,100.00
2022-09-07T03:21:58.629Z,100.00
2022-09-07T03:27:01.047Z,100.00
2022-09-07T03:32:03.278Z,100.00
2022-09-07T03:37:05.520Z,100.00
2022-09-07T03:42:07.739Z,100.00
2022-09-07T03:47:09.979Z,100.00
2022-09-07T03:52:12.213Z,100.00
2022-09-07T03:57:14.324Z,100.00
2022-09-07T04:02:16.774Z,100.00
2022-09-07T04:07:18.973Z,100.00
2022-09-07T04:12:21.120Z,100.00
2022-09-07T04:17:23.222Z,100.00
2022-09-07T04:22:25.403Z,100.00
2022-09-07T04:27:27.583Z,100.00
2022-09-07T04:32:29.696Z,100.00
2022-09-07T04:37:31.862Z,100.00
2022-09-07T04:42:34.530Z,100.00
2022-09-07T04:47:36.727Z,100.00
2022-09-07T04:52:38.906Z,100.00
2022-09-07T04:57:41.017Z,100.00
2022-09-07T05:02:43.410Z,100.00
2022-09-07T05:07:45.599Z,100.00
2022-09-07T05:12:47.897Z,100.00
2022-09-07T05:17:50.035Z,100.00
2022-09-07T05:22:55.044Z,100.00
2022-09-07T05:27:57.295Z,100.00
2022-09-07T05:32:59.469Z,100.00
2022-09-07T05:38:01.666Z,100.00
2022-09-07T05:43:03.794Z,100.00
2022-09-07T05:48:05.917Z,100.00
2022-09-07T05:53:08.046Z,100.00
2022-09-07T05:58:10.174Z,100.00
2022-09-07T06:03:12.465Z,100.00
2022-09-07T06:08:14.790Z,100.00
2022-09-07T06:13:16.905Z,100.00
2022-09-07T06:18:19.057Z,100.00
2022-09-07T06:23:21.195Z,100.00
2022-09-07T06:28:34.458Z,100.00
2022-09-07T06:33:36.621Z,100.00
2022-09-07T06:38:39.838Z,100.00
2022-09-07T06:43:45.590Z,100.00
2022-09-07T06:48:48.411Z,100.00
2022-09-07T06:53:51.092Z,100.00
2022-09-07T06:58:54.083Z,100.00
2022-09-07T07:03:56.181Z,100.00
2022-09-07T07:08:58.394Z,100.00
2022-09-07T07:14:00.567Z,100.00
2022-09-07T07:19:02.745Z,100.00
2022-09-07T07:24:08.099Z,100.00
2022-09-07T07:29:10.518Z,100.00
2022-09-07T07:34:15.809Z,100.00
2022-09-07T07:44:40.066Z,100.00
2022-09-07T07:49:42.162Z,100.00
2022-09-07T07:54:44.509Z,100.00
2022-09-07T07:59:46.642Z,100.00
2022-09-07T08:04:48.972Z,100.00
2022-09-07T08:09:51.140Z,100.00
2022-09-07T08:14:53.237Z,100.00
2022-09-07T08:19:55.390Z,100.00
2022-09-07T08:24:57.515Z,100.00
2022-09-07T08:30:00.243Z,100.00
2022-09-07T08:35:02.476Z,100.00
2022-09-07T08:40:04.974Z,100.00
2022-09-07T08:45:17.163Z,100.00
2022-09-07T08:50:40.696Z,100.00
2022-09-07T08:55:58.392Z,100.00
2022-09-07T09:06:46.854Z,100.00
2022-09-07T09:12:06.015Z,100.00
2022-09-07T09:17:16.035Z,100.00
2022-09-07T09:22:21.544Z,100.00
2022-09-07T09:27:23.691Z,100.00
2022-09-07T09:32:33.199Z,100.00
2022-09-07T09:37:37.002Z,100.00
2022-09-07T09:42:39.169Z,100.00
2022-09-07T09:47:41.389Z,100.00
2022-09-07T09:52:51.641Z,100.00
2022-09-07T10:09:00.333Z,100.00
2022-09-07T10:14:02.573Z,100.00
2022-09-07T10:19:04.774Z,100.00
2022-09-07T10:24:06.831Z,100.00
2022-09-07T10:29:29.209Z,100.00
2022-09-07T10:34:57.427Z,100.00
2022-09-07T10:40:20.896Z,100.00
2022-09-07T10:45:26.242Z,100.00
2022-09-07T10:50:48.453Z,100.00
2022-09-07T10:56:05.452Z,100.00
2022-09-07T11:01:14.650Z,100.00
2022-09-07T11:06:21.977Z,100.00
2022-09-07T11:12:02.039Z,100.00
2022-09-07T11:17:25.795Z,100.00
2022-09-07T11:22:41.545Z,100.00
2022-09-07T11:28:28.014Z,100.00
2022-09-07T11:39:22.088Z,93.81
2022-09-07T11:44:31.416Z,83.89
2022-09-07T11:49:37.438Z,86.47
2022-09-07T12:00:23.608Z,84.88
2022-09-07T12:06:09.803Z,90.95
2022-09-07T12:11:31.320Z,88.45
2022-09-07T12:16:42.643Z,91.56
2022-09-07T12:21:53.714Z,92.74
2022-09-07T12:26:56.665Z,77.94
2022-09-07T12:32:52.576Z,82.57
2022-09-07T12:37:26.153Z,79.28
2022-09-07T12:42:33.114Z,78.16
2022-09-07T12:47:36.211Z,73.39
2022-09-07T12:52:54.224Z,65.80
2022-09-07T12:57:59.218Z,63.43
2022-09-07T13:09:32.584Z,71.48
2022-09-07T13:14:38.444Z,68.80
2022-09-07T13:19:46.634Z,69.04
2022-09-07T13:24:50.456Z,67.28
2022-09-07T13:29:57.378Z,62.81
2022-09-07T13:35:02.241Z,56.15
2022-09-07T13:40:10.431Z,52.84
2022-09-07T13:45:46.115Z,53.58
2022-09-07T13:50:48.289Z,56.86
2022-09-07T13:56:02.073Z,65.13
2022-09-07T14:01:14.468Z,69.26
2022-09-07T14:06:16.608Z,68.43
2022-09-07T14:11:37.871Z,61.50
2022-09-07T14:16:42.834Z,64.91
2022-09-07T14:21:54.291Z,60.24
2022-09-07T14:26:56.821Z,52.27
2022-09-07T14:32:01.824Z,50.54
2022-09-07T14:37:07.726Z,52.33
2022-09-07T14:42:12.408Z,55.97
2022-09-07T14:47:32.874Z,57.17
2022-09-07T14:52:43.312Z,60.66
2022-09-07T14:58:15.046Z,68.72
2022-09-07T15:03:29.082Z,69.58
2022-09-07T15:08:40.297Z,71.36
2022-09-07T15:13:45.047Z,78.20
2022-09-07T15:18:49.666Z,75.89
2022-09-07T15:23:53.447Z,71.04
2022-09-07T15:29:12.407Z,78.65
2022-09-07T15:34:19.659Z,77.61
2022-09-07T15:39:25.374Z,81.09
2022-09-07T15:44:28.563Z,82.94
2022-09-07T15:49:30.815Z,81.03
2022-09-07T15:54:35.243Z,83.17
2022-09-07T15:59:38.561Z,81.66
2022-09-07T16:04:40.958Z,77.94
2022-09-07T16:09:43.222Z,84.29
2022-09-07T16:14:45.357Z,84.83
2022-09-07T16:19:47.585Z,88.90
2022-09-07T16:24:49.965Z,91.71
2022-09-07T16:29:52.043Z,96.13
2022-09-07T16:34:54.193Z,97.00
2022-09-07T16:39:56.443Z,100.00
2022-09-07T16:46:02.506Z,100.00
2022-09-07T16:50:20.957Z,100.00
2022-09-07T16:55:23.073Z,100.00
2022-09-07T17:00:25.234Z,100.00
2022-09-07T17:05:27.378Z,100.00
2022-09-07T17:10:29.502Z,100.00
2022-09-07T17:15:35.574Z,100.00
2022-09-07T17:20:37.822Z,100.00
2022-09-07T17:25:39.976Z,100.00
2022-09-07T17:30:42.328Z,100.00
2022-09-07T17:35:44.459Z,100.00
2022-09-07T17:40:46.785Z,100.00
2022-09-07T17:45:49.046Z,100.00
2022-09-07T17:51:00.492Z,100.00
2022-09-07T17:56:04.337Z,100.00
2022-09-07T18:01:10.470Z,100.00
2022-09-07T18:06:13.400Z,100.00
2022-09-07T18:16:39.117Z,100.00
2022-09-07T18:21:43.147Z,100.00
2022-09-07T18:26:51.034Z,100.00
2022-09-07T18:31:54.218Z,100.00
2022-09-07T18:36:56.531Z,100.00
2022-09-07T18:41:58.791Z,100.00
2022-09-07T18:47:01.119Z,100.00
2022-09-07T18:57:26.076Z,100.00
2022-09-07T19:02:28.283Z,100.00
2022-09-07T19:07:30.523Z,100.00
2022-09-07T19:12:32.740Z,100.00
2022-09-07T19:17:35.001Z,100.00
2022-09-07T19:22:37.214Z,100.00
2022-09-07T19:27:39.390Z,100.00
2022-09-07T19:32:41.514Z,100.00
2022-09-07T19:37:43.631Z,100.00
2022-09-07T19:42:45.893Z,100.00
2022-09-07T19:47:47.995Z,100.00
2022-09-07T19:52:50.217Z,100.00
2022-09-07T19:57:52.510Z,100.00
2022-09-07T20:02:54.669Z,100.00
2022-09-07T20:07:57.661Z,100.00
2022-09-07T20:12:59.656Z,100.00
2022-09-07T20:18:01.712Z,100.00
2022-09-07T20:23:03.828Z,100.00
2022-09-07T20:28:06.048Z,100.00
2022-09-07T20:33:08.176Z,100.00
2022-09-07T20:38:10.896Z,100.00
2022-09-07T20:43:13.134Z,100.00
2022-09-07T20:48:15.803Z,100.00
2022-09-07T20:53:17.935Z,100.00
2022-09-07T20:58:20.023Z,100.00
2022-09-07T21:03:22.633Z,100.00
2022-09-07T21:08:24.775Z,100.00
2022-09-07T21:13:26.923Z,100.00
2022-09-07T21:18:29.165Z,100.00
2022-09-07T21:23:33.351Z,100.00
2022-09-07T21:28:35.522Z,100.00
2022-09-07T21:33:37.711Z,100.00
2022-09-07T21:38:41.485Z,100.00
2022-09-07T21:43:43.620Z,100.00
2022-09-07T21:48:46.251Z,100.00
2022-09-07T21:54:00.939Z,100.00
2022-09-07T21:59:03.069Z,100.00
2022-09-07T22:04:05.537Z,100.00
2022-09-07T22:09:07.765Z,100.00
2022-09-07T22:14:11.670Z,100.00
2022-09-07T22:19:13.793Z,100.00
2022-09-07T22:24:16.668Z,100.00
2022-09-07T22:29:18.796Z,100.00
2022-09-07T22:34:20.903Z,100.00
2022-09-07T22:39:23.051Z,100.00
2022-09-07T22:44:25.190Z,100.00
2022-09-07T22:49:27.350Z,100.00
2022-09-07T22:54:29.484Z,100.00
2022-09-07T22:59:31.643Z,100.00
2022-09-07T23:04:33.859Z,100.00
2022-09-07T23:09:35.990Z,100.00
2022-09-07T23:14:38.107Z,100.00
2022-09-07T23:19:40.292Z,100.00
2022-09-07T23:24:42.395Z,100.00
2022-09-07T23:29:44.523Z,100.00
2022-09-07T23:34:46.644Z,100.00
2022-09-07T23:39:48.813Z,100.00
2022-09-07T23:44:51.021Z,100.00
2022-09-07T23:49:53.120Z,100.00
2022-09-07T23:54:55.364Z,100.00
2022-09-07T23:59:57.627Z,100.00
